sensor_id;sensor_type;location;lat;lon;timestamp;temperature;humidity
58519;DHT22;44310;48.106;12.008;2023-09-19T00:00:43;21.70;91.20
58519;DHT22;44310;48.106;12.008;2023-09-19T00:03:14;21.70;91.10
58519;DHT22;44310;48.106;12.008;2023-09-19T00:05:42;21.80;91.10
58519;DHT22;44310;48.106;12.008;2023-09-19T00:08:11;21.70;91.00
58519;DHT22;44310;48.106;12.008;2023-09-19T00:10:41;21.70;91.00
58519;DHT22;44310;48.106;12.008;2023-09-19T00:13:10;21.70;90.90
58519;DHT22;44310;48.106;12.008;2023-09-19T00:15:46;21.70;90.80
58519;DHT22;44310;48.106;12.008;2023-09-19T00:18:18;21.60;90.80
58519;DHT22;44310;48.106;12.008;2023-09-19T00:20:49;21.70;90.70
58519;DHT22;44310;48.106;12.008;2023-09-19T00:23:18;21.70;90.60
58519;DHT22;44310;48.106;12.008;2023-09-19T00:25:47;21.70;90.80
58519;DHT22;44310;48.106;12.008;2023-09-19T00:28:15;21.70;90.80
58519;DHT22;44310;48.106;12.008;2023-09-19T00:30:46;21.70;91.10
58519;DHT22;44310;48.106;12.008;2023-09-19T00:33:19;21.80;91.40
58519;DHT22;44310;48.106;12.008;2023-09-19T00:35:54;21.80;91.30
58519;DHT22;44310;48.106;12.008;2023-09-19T00:38:22;21.80;91.40
58519;DHT22;44310;48.106;12.008;2023-09-19T00:40:51;21.80;91.40
58519;DHT22;44310;48.106;12.008;2023-09-19T00:43:19;21.80;91.30
58519;DHT22;44310;48.106;12.008;2023-09-19T00:45:51;21.80;91.40
58519;DHT22;44310;48.106;12.008;2023-09-19T00:48:19;21.70;91.30
58519;DHT22;44310;48.106;12.008;2023-09-19T00:50:48;21.70;91.10
58519;DHT22;44310;48.106;12.008;2023-09-19T00:53:19;21.80;91.20
58519;DHT22;44310;48.106;12.008;2023-09-19T00:55:48;21.70;91.10
58519;DHT22;44310;48.106;12.008;2023-09-19T00:58:19;21.70;91.10
58519;DHT22;44310;48.106;12.008;2023-09-19T01:00:50;21.70;91.00
58519;DHT22;44310;48.106;12.008;2023-09-19T01:03:18;21.60;90.90
58519;DHT22;44310;48.106;12.008;2023-09-19T01:05:46;21.60;90.80
58519;DHT22;44310;48.106;12.008;2023-09-19T01:08:13;21.60;90.80
58519;DHT22;44310;48.106;12.008;2023-09-19T01:10:55;21.60;90.80
58519;DHT22;44310;48.106;12.008;2023-09-19T01:13:30;21.60;91.10
58519;DHT22;44310;48.106;12.008;2023-09-19T01:18:47;21.60;90.80
58519;DHT22;44310;48.106;12.008;2023-09-19T01:21:26;21.60;90.80
58519;DHT22;44310;48.106;12.008;2023-09-19T01:29:44;21.60;90.80
58519;DHT22;44310;48.106;12.008;2023-09-19T01:32:19;21.60;90.80
58519;DHT22;44310;48.106;12.008;2023-09-19T01:34:55;21.90;90.90
58519;DHT22;44310;48.106;12.008;2023-09-19T01:37:25;21.60;90.90
58519;DHT22;44310;48.106;12.008;2023-09-19T01:40:05;21.60;90.90
58519;DHT22;44310;48.106;12.008;2023-09-19T01:43:09;21.70;91.30
58519;DHT22;44310;48.106;12.008;2023-09-19T01:48:35;21.80;91.80
58519;DHT22;44310;48.106;12.008;2023-09-19T01:51:06;21.80;92.10
58519;DHT22;44310;48.106;12.008;2023-09-19T01:53:39;21.80;92.10
58519;DHT22;44310;48.106;12.008;2023-09-19T01:56:08;21.80;91.90
58519;DHT22;44310;48.106;12.008;2023-09-19T01:58:48;21.70;91.80
58519;DHT22;44310;48.106;12.008;2023-09-19T02:01:21;21.70;91.70
58519;DHT22;44310;48.106;12.008;2023-09-19T02:03:50;21.70;91.50
58519;DHT22;44310;48.106;12.008;2023-09-19T02:06:18;21.70;91.40
58519;DHT22;44310;48.106;12.008;2023-09-19T02:08:46;21.60;91.20
58519;DHT22;44310;48.106;12.008;2023-09-19T02:11:14;21.60;91.20
58519;DHT22;44310;48.106;12.008;2023-09-19T02:13:42;21.60;91.10
58519;DHT22;44310;48.106;12.008;2023-09-19T02:16:10;21.60;91.10
58519;DHT22;44310;48.106;12.008;2023-09-19T02:18:39;21.60;91.00
58519;DHT22;44310;48.106;12.008;2023-09-19T02:21:06;21.60;91.00
58519;DHT22;44310;48.106;12.008;2023-09-19T02:23:33;21.60;91.00
58519;DHT22;44310;48.106;12.008;2023-09-19T02:26:00;21.60;90.90
58519;DHT22;44310;48.106;12.008;2023-09-19T02:28:28;21.60;90.80
58519;DHT22;44310;48.106;12.008;2023-09-19T02:30:59;21.50;90.80
58519;DHT22;44310;48.106;12.008;2023-09-19T02:33:26;21.60;90.80
58519;DHT22;44310;48.106;12.008;2023-09-19T02:35:57;21.50;90.70
58519;DHT22;44310;48.106;12.008;2023-09-19T02:38:28;21.50;90.60
58519;DHT22;44310;48.106;12.008;2023-09-19T02:40:56;21.60;90.60
58519;DHT22;44310;48.106;12.008;2023-09-19T02:43:23;21.50;90.50
58519;DHT22;44310;48.106;12.008;2023-09-19T02:45:51;21.50;90.40
58519;DHT22;44310;48.106;12.008;2023-09-19T02:48:22;21.40;90.40
58519;DHT22;44310;48.106;12.008;2023-09-19T02:50:50;21.60;90.40
58519;DHT22;44310;48.106;12.008;2023-09-19T02:53:18;21.50;90.20
58519;DHT22;44310;48.106;12.008;2023-09-19T02:55:47;21.50;90.20
58519;DHT22;44310;48.106;12.008;2023-09-19T02:58:14;21.60;90.20
58519;DHT22;44310;48.106;12.008;2023-09-19T03:00:42;21.50;90.20
58519;DHT22;44310;48.106;12.008;2023-09-19T03:03:09;21.50;90.10
58519;DHT22;44310;48.106;12.008;2023-09-19T03:05:36;21.50;90.20
58519;DHT22;44310;48.106;12.008;2023-09-19T03:08:05;21.50;90.20
58519;DHT22;44310;48.106;12.008;2023-09-19T03:10:33;21.60;90.30
58519;DHT22;44310;48.106;12.008;2023-09-19T03:13:00;21.60;90.40
58519;DHT22;44310;48.106;12.008;2023-09-19T03:15:27;21.60;90.30
58519;DHT22;44310;48.106;12.008;2023-09-19T03:17:55;21.50;90.30
58519;DHT22;44310;48.106;12.008;2023-09-19T03:20:22;21.60;90.40
58519;DHT22;44310;48.106;12.008;2023-09-19T03:22:50;21.60;90.30
58519;DHT22;44310;48.106;12.008;2023-09-19T03:25:17;21.60;90.40
58519;DHT22;44310;48.106;12.008;2023-09-19T03:27:58;21.60;90.70
58519;DHT22;44310;48.106;12.008;2023-09-19T03:30:26;21.70;90.90
58519;DHT22;44310;48.106;12.008;2023-09-19T03:32:53;21.70;91.00
58519;DHT22;44310;48.106;12.008;2023-09-19T03:35:20;21.70;91.10
58519;DHT22;44310;48.106;12.008;2023-09-19T03:37:47;21.70;91.10
58519;DHT22;44310;48.106;12.008;2023-09-19T03:40:15;21.70;91.00
58519;DHT22;44310;48.106;12.008;2023-09-19T03:42:43;21.60;90.80
58519;DHT22;44310;48.106;12.008;2023-09-19T03:45:10;21.60;90.60
58519;DHT22;44310;48.106;12.008;2023-09-19T03:47:41;21.60;90.50
58519;DHT22;44310;48.106;12.008;2023-09-19T03:50:09;21.60;90.30
58519;DHT22;44310;48.106;12.008;2023-09-19T03:52:38;21.60;90.30
58519;DHT22;44310;48.106;12.008;2023-09-19T03:55:05;21.30;90.10
58519;DHT22;44310;48.106;12.008;2023-09-19T03:57:33;21.50;90.00
58519;DHT22;44310;48.106;12.008;2023-09-19T04:00:03;21.40;90.00
58519;DHT22;44310;48.106;12.008;2023-09-19T04:02:39;21.50;90.20
58519;DHT22;44310;48.106;12.008;2023-09-19T04:05:07;21.60;89.90
58519;DHT22;44310;48.106;12.008;2023-09-19T04:07:34;21.50;89.80
58519;DHT22;44310;48.106;12.008;2023-09-19T04:10:02;21.60;89.80
58519;DHT22;44310;48.106;12.008;2023-09-19T04:12:30;21.50;89.50
58519;DHT22;44310;48.106;12.008;2023-09-19T04:14:57;21.50;89.20
58519;DHT22;44310;48.106;12.008;2023-09-19T04:17:24;21.60;89.30
58519;DHT22;44310;48.106;12.008;2023-09-19T04:19:52;21.60;89.50
58519;DHT22;44310;48.106;12.008;2023-09-19T04:22:20;21.60;89.70
58519;DHT22;44310;48.106;12.008;2023-09-19T04:24:47;21.60;90.30
58519;DHT22;44310;48.106;12.008;2023-09-19T04:27:14;21.70;90.60
58519;DHT22;44310;48.106;12.008;2023-09-19T04:29:42;21.90;90.80
58519;DHT22;44310;48.106;12.008;2023-09-19T04:32:09;21.80;90.90
58519;DHT22;44310;48.106;12.008;2023-09-19T04:34:37;21.70;91.00
58519;DHT22;44310;48.106;12.008;2023-09-19T04:37:07;21.70;91.00
58519;DHT22;44310;48.106;12.008;2023-09-19T04:39:34;21.70;91.00
58519;DHT22;44310;48.106;12.008;2023-09-19T04:42:01;21.70;91.00
58519;DHT22;44310;48.106;12.008;2023-09-19T04:44:28;21.70;91.00
58519;DHT22;44310;48.106;12.008;2023-09-19T04:46:55;21.70;91.00
58519;DHT22;44310;48.106;12.008;2023-09-19T04:49:23;21.70;91.00
58519;DHT22;44310;48.106;12.008;2023-09-19T04:51:50;21.60;90.60
58519;DHT22;44310;48.106;12.008;2023-09-19T04:54:17;21.60;90.40
58519;DHT22;44310;48.106;12.008;2023-09-19T04:56:45;21.70;90.20
58519;DHT22;44310;48.106;12.008;2023-09-19T04:59:12;21.50;90.20
58519;DHT22;44310;48.106;12.008;2023-09-19T05:01:39;21.60;90.30
58519;DHT22;44310;48.106;12.008;2023-09-19T05:04:06;21.50;89.90
58519;DHT22;44310;48.106;12.008;2023-09-19T05:06:33;21.50;89.90
58519;DHT22;44310;48.106;12.008;2023-09-19T05:09:01;21.50;89.90
58519;DHT22;44310;48.106;12.008;2023-09-19T05:11:28;21.50;89.90
58519;DHT22;44310;48.106;12.008;2023-09-19T05:13:57;22.10;90.10
58519;DHT22;44310;48.106;12.008;2023-09-19T05:16:29;21.50;90.00
58519;DHT22;44310;48.106;12.008;2023-09-19T05:18:57;21.50;89.90
58519;DHT22;44310;48.106;12.008;2023-09-19T05:21:26;21.50;89.90
58519;DHT22;44310;48.106;12.008;2023-09-19T05:23:57;21.50;89.90
58519;DHT22;44310;48.106;12.008;2023-09-19T05:26:25;21.50;89.70
58519;DHT22;44310;48.106;12.008;2023-09-19T05:28:52;21.50;89.80
58519;DHT22;44310;48.106;12.008;2023-09-19T05:31:20;21.60;89.90
58519;DHT22;44310;48.106;12.008;2023-09-19T05:33:47;21.60;89.80
58519;DHT22;44310;48.106;12.008;2023-09-19T05:36:14;21.60;90.20
58519;DHT22;44310;48.106;12.008;2023-09-19T05:38:42;21.70;90.50
58519;DHT22;44310;48.106;12.008;2023-09-19T05:41:11;21.80;90.60
58519;DHT22;44310;48.106;12.008;2023-09-19T05:43:40;21.70;90.50
58519;DHT22;44310;48.106;12.008;2023-09-19T05:46:08;21.70;90.50
58519;DHT22;44310;48.106;12.008;2023-09-19T05:48:36;21.60;90.50
58519;DHT22;44310;48.106;12.008;2023-09-19T05:51:03;21.70;90.60
58519;DHT22;44310;48.106;12.008;2023-09-19T05:53:30;21.70;90.60
58519;DHT22;44310;48.106;12.008;2023-09-19T05:55:57;21.70;90.50
58519;DHT22;44310;48.106;12.008;2023-09-19T05:58:25;21.70;90.40
58519;DHT22;44310;48.106;12.008;2023-09-19T06:00:52;21.90;90.50
58519;DHT22;44310;48.106;12.008;2023-09-19T06:03:20;21.70;90.40
58519;DHT22;44310;48.106;12.008;2023-09-19T06:05:47;21.70;90.40
58519;DHT22;44310;48.106;12.008;2023-09-19T06:08:16;21.60;90.10
58519;DHT22;44310;48.106;12.008;2023-09-19T06:10:44;21.60;90.10
58519;DHT22;44310;48.106;12.008;2023-09-19T06:13:12;21.60;90.10
58519;DHT22;44310;48.106;12.008;2023-09-19T06:15:40;21.60;90.40
58519;DHT22;44310;48.106;12.008;2023-09-19T06:18:11;21.60;89.80
58519;DHT22;44310;48.106;12.008;2023-09-19T06:20:41;21.60;89.50
58519;DHT22;44310;48.106;12.008;2023-09-19T06:23:11;21.60;89.80
58519;DHT22;44310;48.106;12.008;2023-09-19T06:25:38;21.60;89.60
58519;DHT22;44310;48.106;12.008;2023-09-19T06:28:06;21.70;89.50
58519;DHT22;44310;48.106;12.008;2023-09-19T06:30:35;21.60;89.30
58519;DHT22;44310;48.106;12.008;2023-09-19T06:33:03;21.60;89.30
58519;DHT22;44310;48.106;12.008;2023-09-19T06:35:33;21.70;89.60
58519;DHT22;44310;48.106;12.008;2023-09-19T06:38:04;21.70;89.90
58519;DHT22;44310;48.106;12.008;2023-09-19T06:40:31;21.70;90.00
58519;DHT22;44310;48.106;12.008;2023-09-19T06:43:01;21.90;90.00
58519;DHT22;44310;48.106;12.008;2023-09-19T06:45:31;21.80;90.00
58519;DHT22;44310;48.106;12.008;2023-09-19T06:47:59;21.80;90.00
58519;DHT22;44310;48.106;12.008;2023-09-19T06:50:27;21.80;90.00
58519;DHT22;44310;48.106;12.008;2023-09-19T06:52:55;21.80;89.70
58519;DHT22;44310;48.106;12.008;2023-09-19T06:55:25;21.80;89.70
58519;DHT22;44310;48.106;12.008;2023-09-19T06:57:55;21.80;89.80
58519;DHT22;44310;48.106;12.008;2023-09-19T07:00:22;21.70;90.00
58519;DHT22;44310;48.106;12.008;2023-09-19T07:03:05;21.80;90.10
58519;DHT22;44310;48.106;12.008;2023-09-19T07:05:35;21.80;90.30
58519;DHT22;44310;48.106;12.008;2023-09-19T07:08:07;22.00;90.30
58519;DHT22;44310;48.106;12.008;2023-09-19T07:10:36;21.80;90.20
58519;DHT22;44310;48.106;12.008;2023-09-19T07:13:05;21.80;90.30
58519;DHT22;44310;48.106;12.008;2023-09-19T07:15:38;21.80;90.30
58519;DHT22;44310;48.106;12.008;2023-09-19T07:18:15;21.80;90.20
58519;DHT22;44310;48.106;12.008;2023-09-19T07:20:44;21.70;90.20
58519;DHT22;44310;48.106;12.008;2023-09-19T07:23:20;21.70;90.20
58519;DHT22;44310;48.106;12.008;2023-09-19T07:25:49;21.80;90.20
58519;DHT22;44310;48.106;12.008;2023-09-19T07:28:17;21.70;90.20
58519;DHT22;44310;48.106;12.008;2023-09-19T07:30:44;21.70;90.20
58519;DHT22;44310;48.106;12.008;2023-09-19T07:33:11;21.70;90.10
58519;DHT22;44310;48.106;12.008;2023-09-19T07:35:39;21.70;90.10
58519;DHT22;44310;48.106;12.008;2023-09-19T07:38:09;21.70;90.00
58519;DHT22;44310;48.106;12.008;2023-09-19T07:40:39;21.70;90.00
58519;DHT22;44310;48.106;12.008;2023-09-19T07:43:06;21.70;89.90
58519;DHT22;44310;48.106;12.008;2023-09-19T07:45:34;21.70;89.80
58519;DHT22;44310;48.106;12.008;2023-09-19T07:48:01;21.70;89.80
58519;DHT22;44310;48.106;12.008;2023-09-19T07:50:34;21.70;89.90
58519;DHT22;44310;48.106;12.008;2023-09-19T07:53:03;21.70;89.80
58519;DHT22;44310;48.106;12.008;2023-09-19T07:55:32;21.70;90.00
58519;DHT22;44310;48.106;12.008;2023-09-19T07:58:01;22.00;90.10
58519;DHT22;44310;48.106;12.008;2023-09-19T08:00:30;21.70;90.00
58519;DHT22;44310;48.106;12.008;2023-09-19T08:02:59;21.70;90.10
58519;DHT22;44310;48.106;12.008;2023-09-19T08:05:34;21.80;90.10
58519;DHT22;44310;48.106;12.008;2023-09-19T08:08:03;21.70;90.00
58519;DHT22;44310;48.106;12.008;2023-09-19T08:10:31;21.70;90.10
58519;DHT22;44310;48.106;12.008;2023-09-19T08:13:02;21.70;90.20
58519;DHT22;44310;48.106;12.008;2023-09-19T08:15:29;21.70;90.20
58519;DHT22;44310;48.106;12.008;2023-09-19T08:17:57;21.70;90.10
58519;DHT22;44310;48.106;12.008;2023-09-19T08:20:24;21.70;90.10
58519;DHT22;44310;48.106;12.008;2023-09-19T08:22:52;21.70;90.10
58519;DHT22;44310;48.106;12.008;2023-09-19T08:25:22;21.60;90.00
58519;DHT22;44310;48.106;12.008;2023-09-19T08:27:50;21.70;90.00
58519;DHT22;44310;48.106;12.008;2023-09-19T08:30:22;21.70;90.00
58519;DHT22;44310;48.106;12.008;2023-09-19T08:32:57;21.70;90.00
58519;DHT22;44310;48.106;12.008;2023-09-19T08:35:26;21.70;90.00
58519;DHT22;44310;48.106;12.008;2023-09-19T08:37:54;21.80;90.00
58519;DHT22;44310;48.106;12.008;2023-09-19T08:40:23;21.70;90.00
58519;DHT22;44310;48.106;12.008;2023-09-19T08:42:52;21.60;88.50
58519;DHT22;44310;48.106;12.008;2023-09-19T08:45:24;21.50;87.30
58519;DHT22;44310;48.106;12.008;2023-09-19T08:48:07;21.40;87.40
58519;DHT22;44310;48.106;12.008;2023-09-19T08:50:50;21.30;85.50
58519;DHT22;44310;48.106;12.008;2023-09-19T08:53:29;21.20;85.80
58519;DHT22;44310;48.106;12.008;2023-09-19T08:56:00;21.10;86.60
58519;DHT22;44310;48.106;12.008;2023-09-19T08:58:43;21.10;86.50
58519;DHT22;44310;48.106;12.008;2023-09-19T09:01:13;21.10;86.60
58519;DHT22;44310;48.106;12.008;2023-09-19T09:03:43;20.90;85.00
58519;DHT22;44310;48.106;12.008;2023-09-19T09:06:16;20.90;86.30
58519;DHT22;44310;48.106;12.008;2023-09-19T09:08:45;21.00;87.20
58519;DHT22;44310;48.106;12.008;2023-09-19T09:11:13;21.10;86.90
58519;DHT22;44310;48.106;12.008;2023-09-19T09:13:41;21.10;87.10
58519;DHT22;44310;48.106;12.008;2023-09-19T09:16:09;21.10;86.60
58519;DHT22;44310;48.106;12.008;2023-09-19T09:18:37;21.10;87.40
58519;DHT22;44310;48.106;12.008;2023-09-19T09:21:04;21.10;88.20
58519;DHT22;44310;48.106;12.008;2023-09-19T09:23:31;21.20;86.70
58519;DHT22;44310;48.106;12.008;2023-09-19T09:26:00;21.00;86.50
58519;DHT22;44310;48.106;12.008;2023-09-19T09:28:33;21.00;86.10
58519;DHT22;44310;48.106;12.008;2023-09-19T09:31:02;21.00;85.40
58519;DHT22;44310;48.106;12.008;2023-09-19T09:33:36;20.90;85.90
58519;DHT22;44310;48.106;12.008;2023-09-19T09:36:05;20.90;85.90
58519;DHT22;44310;48.106;12.008;2023-09-19T09:38:46;21.00;86.70
58519;DHT22;44310;48.106;12.008;2023-09-19T09:41:15;21.10;87.10
58519;DHT22;44310;48.106;12.008;2023-09-19T09:43:54;21.20;87.60
58519;DHT22;44310;48.106;12.008;2023-09-19T09:46:21;21.20;87.40
58519;DHT22;44310;48.106;12.008;2023-09-19T09:48:59;21.30;87.90
58519;DHT22;44310;48.106;12.008;2023-09-19T09:52:02;21.30;87.90
58519;DHT22;44310;48.106;12.008;2023-09-19T09:54:38;21.30;87.80
58519;DHT22;44310;48.106;12.008;2023-09-19T09:57:10;21.30;87.90
58519;DHT22;44310;48.106;12.008;2023-09-19T09:59:51;21.30;87.70
58519;DHT22;44310;48.106;12.008;2023-09-19T10:02:30;21.40;88.10
58519;DHT22;44310;48.106;12.008;2023-09-19T10:05:17;21.40;88.20
58519;DHT22;44310;48.106;12.008;2023-09-19T10:07:55;21.40;87.90
58519;DHT22;44310;48.106;12.008;2023-09-19T10:10:37;21.40;87.60
58519;DHT22;44310;48.106;12.008;2023-09-19T10:13:09;21.30;88.10
58519;DHT22;44310;48.106;12.008;2023-09-19T10:15:43;21.30;87.20
58519;DHT22;44310;48.106;12.008;2023-09-19T10:18:26;21.40;87.10
58519;DHT22;44310;48.106;12.008;2023-09-19T10:20:56;21.30;86.90
58519;DHT22;44310;48.106;12.008;2023-09-19T10:23:25;22.20;87.60
58519;DHT22;44310;48.106;12.008;2023-09-19T10:25:54;21.30;86.80
58519;DHT22;44310;48.106;12.008;2023-09-19T10:28:22;21.30;87.20
58519;DHT22;44310;48.106;12.008;2023-09-19T10:30:53;21.30;87.40
58519;DHT22;44310;48.106;12.008;2023-09-19T10:33:22;21.30;87.20
58519;DHT22;44310;48.106;12.008;2023-09-19T10:35:53;21.30;86.00
58519;DHT22;44310;48.106;12.008;2023-09-19T10:38:24;21.30;86.20
58519;DHT22;44310;48.106;12.008;2023-09-19T10:40:56;21.30;86.50
58519;DHT22;44310;48.106;12.008;2023-09-19T10:43:32;21.30;86.10
58519;DHT22;44310;48.106;12.008;2023-09-19T10:46:07;21.30;86.10
58519;DHT22;44310;48.106;12.008;2023-09-19T10:48:35;21.40;85.20
58519;DHT22;44310;48.106;12.008;2023-09-19T10:51:14;21.30;85.50
58519;DHT22;44310;48.106;12.008;2023-09-19T10:56:37;21.30;84.80
58519;DHT22;44310;48.106;12.008;2023-09-19T10:59:09;21.30;83.80
58519;DHT22;44310;48.106;12.008;2023-09-19T11:01:51;21.30;84.00
58519;DHT22;44310;48.106;12.008;2023-09-19T11:04:34;21.20;83.60
58519;DHT22;44310;48.106;12.008;2023-09-19T11:09:51;21.20;83.70
58519;DHT22;44310;48.106;12.008;2023-09-19T11:14:58;21.30;83.60
58519;DHT22;44310;48.106;12.008;2023-09-19T11:17:39;21.30;83.20
58519;DHT22;44310;48.106;12.008;2023-09-19T11:30:34;21.30;83.40
58519;DHT22;44310;48.106;12.008;2023-09-19T11:43:49;21.40;83.70
58519;DHT22;44310;48.106;12.008;2023-09-19T11:46:23;21.40;83.60
58519;DHT22;44310;48.106;12.008;2023-09-19T11:48:51;21.30;83.20
58519;DHT22;44310;48.106;12.008;2023-09-19T11:51:23;21.30;82.90
58519;DHT22;44310;48.106;12.008;2023-09-19T11:53:57;21.30;83.20
58519;DHT22;44310;48.106;12.008;2023-09-19T11:56:28;21.30;83.50
58519;DHT22;44310;48.106;12.008;2023-09-19T11:58:56;21.50;83.60
58519;DHT22;44310;48.106;12.008;2023-09-19T12:01:32;21.40;83.50
58519;DHT22;44310;48.106;12.008;2023-09-19T12:04:02;21.40;83.90
58519;DHT22;44310;48.106;12.008;2023-09-19T12:06:31;21.40;83.60
58519;DHT22;44310;48.106;12.008;2023-09-19T12:09:03;21.50;83.80
58519;DHT22;44310;48.106;12.008;2023-09-19T12:11:41;21.50;83.80
58519;DHT22;44310;48.106;12.008;2023-09-19T12:14:09;21.50;83.60
58519;DHT22;44310;48.106;12.008;2023-09-19T12:16:37;21.80;84.20
58519;DHT22;44310;48.106;12.008;2023-09-19T12:19:19;21.50;83.30
58519;DHT22;44310;48.106;12.008;2023-09-19T12:21:57;21.50;83.20
58519;DHT22;44310;48.106;12.008;2023-09-19T12:24:27;21.40;82.70
58519;DHT22;44310;48.106;12.008;2023-09-19T12:27:02;21.50;82.80
58519;DHT22;44310;48.106;12.008;2023-09-19T12:29:46;21.50;81.90
58519;DHT22;44310;48.106;12.008;2023-09-19T12:32:14;21.40;81.20
58519;DHT22;44310;48.106;12.008;2023-09-19T12:34:51;21.40;80.80
58519;DHT22;44310;48.106;12.008;2023-09-19T12:37:20;21.40;80.10
58519;DHT22;44310;48.106;12.008;2023-09-19T12:40:12;21.40;80.10
58519;DHT22;44310;48.106;12.008;2023-09-19T12:42:49;21.40;80.50
58519;DHT22;44310;48.106;12.008;2023-09-19T12:45:17;21.60;81.10
58519;DHT22;44310;48.106;12.008;2023-09-19T12:48:23;21.50;81.30
58519;DHT22;44310;48.106;12.008;2023-09-19T12:53:26;21.60;81.80
58519;DHT22;44310;48.106;12.008;2023-09-19T12:55:59;21.60;81.90
58519;DHT22;44310;48.106;12.008;2023-09-19T12:58:26;21.60;82.10
58519;DHT22;44310;48.106;12.008;2023-09-19T13:00:54;21.60;82.20
58519;DHT22;44310;48.106;12.008;2023-09-19T13:03:27;21.60;82.20
58519;DHT22;44310;48.106;12.008;2023-09-19T13:06:00;21.60;82.50
58519;DHT22;44310;48.106;12.008;2023-09-19T13:08:34;21.60;82.70
58519;DHT22;44310;48.106;12.008;2023-09-19T13:13:49;21.60;83.00
58519;DHT22;44310;48.106;12.008;2023-09-19T13:16:17;21.60;82.70
58519;DHT22;44310;48.106;12.008;2023-09-19T13:18:54;21.70;82.90
58519;DHT22;44310;48.106;12.008;2023-09-19T13:23:56;21.70;83.10
58519;DHT22;44310;48.106;12.008;2023-09-19T13:26:26;21.70;83.20
58519;DHT22;44310;48.106;12.008;2023-09-19T13:28:55;21.70;82.90
58519;DHT22;44310;48.106;12.008;2023-09-19T13:31:22;21.70;83.10
58519;DHT22;44310;48.106;12.008;2023-09-19T13:33:50;21.80;83.00
58519;DHT22;44310;48.106;12.008;2023-09-19T13:36:19;21.70;83.70
58519;DHT22;44310;48.106;12.008;2023-09-19T13:38:46;21.70;84.10
58519;DHT22;44310;48.106;12.008;2023-09-19T13:41:16;21.70;84.10
58519;DHT22;44310;48.106;12.008;2023-09-19T13:43:43;21.50;84.90
58519;DHT22;44310;48.106;12.008;2023-09-19T13:46:15;21.80;85.70
58519;DHT22;44310;48.106;12.008;2023-09-19T13:48:43;21.80;85.00
58519;DHT22;44310;48.106;12.008;2023-09-19T13:51:10;22.00;86.20
58519;DHT22;44310;48.106;12.008;2023-09-19T13:53:37;21.90;86.20
58519;DHT22;44310;48.106;12.008;2023-09-19T13:56:04;21.90;86.60
58519;DHT22;44310;48.106;12.008;2023-09-19T13:58:32;22.00;87.60
58519;DHT22;44310;48.106;12.008;2023-09-19T14:01:00;21.90;87.10
58519;DHT22;44310;48.106;12.008;2023-09-19T14:03:28;21.90;87.80
58519;DHT22;44310;48.106;12.008;2023-09-19T14:05:56;22.00;88.30
58519;DHT22;44310;48.106;12.008;2023-09-19T14:08:23;22.00;88.60
58519;DHT22;44310;48.106;12.008;2023-09-19T14:10:50;22.00;89.50
58519;DHT22;44310;48.106;12.008;2023-09-19T14:13:18;22.00;89.40
58519;DHT22;44310;48.106;12.008;2023-09-19T14:15:45;22.00;89.90
58519;DHT22;44310;48.106;12.008;2023-09-19T14:18:12;22.00;90.20
58519;DHT22;44310;48.106;12.008;2023-09-19T14:20:39;22.00;90.40
58519;DHT22;44310;48.106;12.008;2023-09-19T14:23:08;22.00;90.70
58519;DHT22;44310;48.106;12.008;2023-09-19T14:25:35;22.10;90.90
58519;DHT22;44310;48.106;12.008;2023-09-19T14:28:03;22.10;90.90
58519;DHT22;44310;48.106;12.008;2023-09-19T14:30:32;22.10;91.20
58519;DHT22;44310;48.106;12.008;2023-09-19T14:32:59;22.10;91.10
58519;DHT22;44310;48.106;12.008;2023-09-19T14:35:27;22.00;91.00
58519;DHT22;44310;48.106;12.008;2023-09-19T14:37:54;22.00;91.00
58519;DHT22;44310;48.106;12.008;2023-09-19T14:40:22;22.00;91.00
58519;DHT22;44310;48.106;12.008;2023-09-19T14:42:49;22.00;90.90
58519;DHT22;44310;48.106;12.008;2023-09-19T14:45:36;22.00;90.90
58519;DHT22;44310;48.106;12.008;2023-09-19T14:48:05;21.90;90.80
58519;DHT22;44310;48.106;12.008;2023-09-19T14:50:32;21.90;90.70
58519;DHT22;44310;48.106;12.008;2023-09-19T14:53:00;21.90;90.60
58519;DHT22;44310;48.106;12.008;2023-09-19T14:55:29;21.80;90.40
58519;DHT22;44310;48.106;12.008;2023-09-19T14:58:01;21.90;90.40
58519;DHT22;44310;48.106;12.008;2023-09-19T15:00:30;21.90;90.30
58519;DHT22;44310;48.106;12.008;2023-09-19T15:02:58;21.90;90.30
58519;DHT22;44310;48.106;12.008;2023-09-19T15:05:25;21.90;90.20
58519;DHT22;44310;48.106;12.008;2023-09-19T15:07:53;21.90;90.20
58519;DHT22;44310;48.106;12.008;2023-09-19T15:10:20;21.90;90.20
58519;DHT22;44310;48.106;12.008;2023-09-19T15:12:48;21.90;90.00
58519;DHT22;44310;48.106;12.008;2023-09-19T15:15:16;22.00;90.00
58519;DHT22;44310;48.106;12.008;2023-09-19T15:17:43;21.90;90.00
58519;DHT22;44310;48.106;12.008;2023-09-19T15:20:10;21.90;90.00
58519;DHT22;44310;48.106;12.008;2023-09-19T15:22:41;21.90;90.00
58519;DHT22;44310;48.106;12.008;2023-09-19T15:25:08;21.90;90.00
58519;DHT22;44310;48.106;12.008;2023-09-19T15:27:35;21.90;90.00
58519;DHT22;44310;48.106;12.008;2023-09-19T15:30:04;21.90;89.80
58519;DHT22;44310;48.106;12.008;2023-09-19T15:32:32;21.90;89.50
58519;DHT22;44310;48.106;12.008;2023-09-19T15:34:59;21.80;89.30
58519;DHT22;44310;48.106;12.008;2023-09-19T15:37:27;21.90;89.20
58519;DHT22;44310;48.106;12.008;2023-09-19T15:39:54;21.90;89.00
58519;DHT22;44310;48.106;12.008;2023-09-19T15:42:21;21.90;89.90
58519;DHT22;44310;48.106;12.008;2023-09-19T15:44:48;21.90;89.10
58519;DHT22;44310;48.106;12.008;2023-09-19T15:47:18;21.90;89.20
58519;DHT22;44310;48.106;12.008;2023-09-19T15:49:48;21.90;89.20
58519;DHT22;44310;48.106;12.008;2023-09-19T15:52:17;21.90;89.60
58519;DHT22;44310;48.106;12.008;2023-09-19T15:54:44;21.90;89.80
58519;DHT22;44310;48.106;12.008;2023-09-19T15:57:12;22.10;89.60
58519;DHT22;44310;48.106;12.008;2023-09-19T15:59:40;21.90;89.80
58519;DHT22;44310;48.106;12.008;2023-09-19T16:02:08;21.90;90.00
58519;DHT22;44310;48.106;12.008;2023-09-19T16:04:35;22.20;90.00
58519;DHT22;44310;48.106;12.008;2023-09-19T16:07:05;21.90;89.50
58519;DHT22;44310;48.106;12.008;2023-09-19T16:09:34;21.90;90.20
58519;DHT22;44310;48.106;12.008;2023-09-19T16:12:02;21.80;89.70
58519;DHT22;44310;48.106;12.008;2023-09-19T16:14:30;21.90;89.60
58519;DHT22;44310;48.106;12.008;2023-09-19T16:16:58;21.90;88.90
58519;DHT22;44310;48.106;12.008;2023-09-19T16:19:29;21.90;89.10
58519;DHT22;44310;48.106;12.008;2023-09-19T16:21:56;21.90;89.00